Time;durP1;ratioP1;P1;durP2;ratioP2;P2;SDS_P1;SDS_P2;PMS_P1;PMS_P2;Temp;Humidity;BMP_temperature;BMP_pressure;BME280_temperature;BME280_humidity;BME280_pressure;Samples;Min_cycle;Max_cycle;Signal;HPM_P1;HPM_P2
2023/09/10 00:00:50;;;;;;;17.67;16.10;;;21.60;99.90;;;;;;5045655;28;20124;-80
2023/09/10 00:03:16;;;;;;;17.65;16.23;;;21.50;99.90;;;;;;5050257;28;20032;-80
2023/09/10 00:05:41;;;;;;;18.23;16.73;;;21.50;99.90;;;;;;5047480;28;20848;-79
2023/09/10 00:08:07;;;;;;;18.10;16.55;;;21.50;99.90;;;;;;5047176;28;20466;-80
2023/09/10 00:10:32;;;;;;;18.98;17.20;;;21.50;99.90;;;;;;5047790;28;20037;-79
2023/09/10 00:12:58;;;;;;;20.02;18.48;;;21.50;99.90;;;;;;5048774;28;20393;-79
2023/09/10 00:15:24;;;;;;;19.73;18.08;;;21.40;99.90;;;;;;5048778;28;20116;-80
2023/09/10 00:17:51;;;;;;;18.45;16.73;;;21.40;99.90;;;;;;5059957;28;20033;-79
2023/09/10 00:20:17;;;;;;;19.25;17.48;;;21.40;99.90;;;;;;5047620;28;20056;-79
2023/09/10 00:22:42;;;;;;;17.17;15.75;;;21.40;99.90;;;;;;5048221;28;20064;-79
2023/09/10 00:25:10;;;;;;;18.45;17.08;;;21.30;99.90;;;;;;5049057;28;20025;-79
2023/09/10 00:27:35;;;;;;;18.63;17.02;;;21.40;99.90;;;;;;5048460;28;20028;-79
2023/09/10 00:30:01;;;;;;;18.63;17.13;;;21.40;99.90;;;;;;5048981;28;20029;-79
2023/09/10 00:32:27;;;;;;;19.67;18.13;;;21.40;99.90;;;;;;5063493;28;20486;-79
2023/09/10 00:34:52;;;;;;;20.17;18.60;;;21.30;99.90;;;;;;5047041;28;20037;-78
2023/09/10 00:37:18;;;;;;;19.63;17.92;;;21.30;99.90;;;;;;5048496;28;20131;-79
2023/09/10 00:39:45;;;;;;;20.20;18.52;;;21.30;99.90;;;;;;5048055;28;20066;-79
2023/09/10 00:42:11;;;;;;;21.05;19.30;;;21.30;99.90;;;;;;5046175;28;20132;-78
2023/09/10 00:44:37;;;;;;;21.52;19.77;;;21.30;99.90;;;;;;5046829;28;20465;-79
2023/09/10 00:47:04;;;;;;;22.73;20.73;;;21.30;99.90;;;;;;5048230;28;20506;-79
2023/09/10 00:49:30;;;;;;;23.30;21.33;;;21.30;99.90;;;;;;5048429;28;20255;-78
2023/09/10 00:51:58;;;;;;;20.65;18.85;;;21.30;99.90;;;;;;5048562;28;20096;-79
2023/09/10 00:54:25;;;;;;;23.88;21.67;;;21.30;99.90;;;;;;5046706;28;20433;-78
2023/09/10 00:56:52;;;;;;;21.05;19.25;;;21.30;99.90;;;;;;5047619;28;20048;-79
2023/09/10 00:59:18;;;;;;;23.30;21.33;;;21.30;99.90;;;;;;5048108;28;20032;-79
2023/09/10 01:01:43;;;;;;;22.65;20.75;;;21.30;99.90;;;;;;5046193;28;20037;-79
2023/09/10 01:04:09;;;;;;;22.55;20.65;;;21.30;99.90;;;;;;5047749;28;20136;-78
2023/09/10 01:06:36;;;;;;;22.00;19.90;;;21.30;99.90;;;;;;5046257;28;20135;-78
2023/09/10 01:09:04;;;;;;;25.17;22.98;;;21.30;99.90;;;;;;5048092;28;20336;-79
2023/09/10 01:11:51;;;;;;;23.42;21.30;;;21.30;99.90;;;;;;5045795;28;20060;-78
2023/09/10 01:14:33;;;;;;;24.88;22.70;;;21.30;99.90;;;;;;5044855;28;20595;-78
2023/09/10 01:17:10;;;;;;;26.45;24.35;;;21.30;99.90;;;;;;5043523;28;20070;-78
2023/09/10 01:19:46;;;;;;;23.38;21.38;;;21.30;99.90;;;;;;5061148;28;20040;-79
2023/09/10 01:22:39;;;;;;;25.35;23.25;;;21.30;99.90;;;;;;5046513;28;20051;-79
2023/09/10 01:25:05;;;;;;;20.60;18.95;;;21.30;99.90;;;;;;5038595;28;20044;-78
2023/09/10 01:27:31;;;;;;;24.83;22.63;;;21.30;99.90;;;;;;5061487;28;20066;-79
2023/09/10 01:29:57;;;;;;;25.50;23.40;;;21.30;99.90;;;;;;5047509;28;20037;-79
2023/09/10 01:32:30;;;;;;;27.60;25.30;;;21.30;99.90;;;;;;5062649;28;20032;-78
2023/09/10 01:35:07;;;;;;;25.10;23.13;;;21.30;99.90;;;;;;5037632;28;20116;-78
2023/09/10 01:37:40;;;;;;;28.92;26.52;;;21.30;99.90;;;;;;5047323;28;20060;-78
2023/09/10 01:40:09;;;;;;;29.48;27.13;;;21.30;99.90;;;;;;5047113;28;20043;-78
2023/09/10 01:42:35;;;;;;;32.30;29.42;;;21.30;99.90;;;;;;5046745;28;20041;-78
2023/09/10 01:45:03;;;;;;;27.50;25.20;;;21.30;99.90;;;;;;5046170;28;20127;-78
2023/09/10 01:47:28;;;;;;;27.00;24.73;;;21.30;99.90;;;;;;5047407;28;20044;-78
2023/09/10 01:49:55;;;;;;;30.38;27.67;;;21.30;99.90;;;;;;5047457;28;20040;-78
2023/09/10 01:52:20;;;;;;;29.45;26.73;;;21.30;99.90;;;;;;5046841;28;20029;-78
2023/09/10 01:54:46;;;;;;;31.05;28.23;;;21.30;99.90;;;;;;5046136;28;20536;-78
2023/09/10 01:57:11;;;;;;;25.90;23.77;;;21.30;99.90;;;;;;5048574;28;20025;-79
2023/09/10 01:59:37;;;;;;;27.67;25.38;;;21.30;99.90;;;;;;5046599;28;20029;-78
2023/09/10 02:02:03;;;;;;;29.05;26.52;;;21.20;99.90;;;;;;5045258;28;20020;-78
2023/09/10 02:04:28;;;;;;;32.75;30.05;;;21.20;99.90;;;;;;5050813;28;20028;-78
2023/09/10 02:06:54;;;;;;;30.38;27.92;;;21.20;99.90;;;;;;5045297;28;20127;-79
2023/09/10 02:09:19;;;;;;;35.42;32.50;;;21.20;99.90;;;;;;5046385;28;20048;-79
2023/09/10 02:11:45;;;;;;;32.40;29.40;;;21.20;99.90;;;;;;5045433;28;20393;-79
2023/09/10 02:14:10;;;;;;;31.98;29.35;;;21.20;99.90;;;;;;5046867;28;20405;-79
2023/09/10 02:16:36;;;;;;;29.65;27.15;;;21.20;99.90;;;;;;5047266;28;20048;-79
2023/09/10 02:19:03;;;;;;;29.10;26.48;;;21.30;99.90;;;;;;5045754;28;20119;-78
2023/09/10 02:21:29;;;;;;;28.92;26.67;;;21.20;99.90;;;;;;5046949;28;20108;-79
2023/09/10 02:23:54;;;;;;;33.83;31.23;;;21.30;99.90;;;;;;5045298;28;20111;-79
2023/09/10 02:26:20;;;;;;;28.67;26.27;;;21.20;99.90;;;;;;5045254;28;20024;-79
2023/09/10 02:28:45;;;;;;;27.38;24.98;;;21.20;99.90;;;;;;5045421;28;20141;-79
2023/09/10 02:31:11;;;;;;;28.75;26.30;;;21.20;99.90;;;;;;5045344;28;20025;-79
2023/09/10 02:33:36;;;;;;;30.23;27.52;;;21.10;99.90;;;;;;5046490;28;20068;-79
2023/09/10 02:36:02;;;;;;;32.08;29.30;;;21.10;99.90;;;;;;5061588;28;20120;-79
2023/09/10 02:38:28;;;;;;;31.00;28.27;;;21.10;99.90;;;;;;5044823;28;20144;-79
2023/09/10 02:40:55;;;;;;;34.13;31.35;;;21.10;99.90;;;;;;5044703;28;20199;-79
2023/09/10 02:43:21;;;;;;;36.30;33.20;;;21.00;99.90;;;;;;5045332;28;20025;-78
2023/09/10 02:45:47;;;;;;;33.28;30.58;;;21.00;99.90;;;;;;5044582;28;20024;-79
2023/09/10 02:48:12;;;;;;;38.75;35.47;;;21.10;99.90;;;;;;5045156;28;20040;-78
2023/09/10 02:50:38;;;;;;;32.88;30.08;;;21.00;99.90;;;;;;5044636;28;20029;-79
2023/09/10 02:53:03;;;;;;;33.75;30.98;;;21.00;99.90;;;;;;5062922;28;20021;-78
2023/09/10 02:55:29;;;;;;;28.67;26.38;;;21.00;99.90;;;;;;5044812;28;20110;-79
2023/09/10 02:57:54;;;;;;;28.67;25.98;;;21.00;99.90;;;;;;5044576;28;20040;-79
2023/09/10 03:00:25;;;;;;;29.27;26.83;;;21.00;99.90;;;;;;5046219;28;20163;-78
2023/09/10 03:02:57;;;;;;;29.42;26.92;;;21.00;99.90;;;;;;5045836;28;20041;-78
2023/09/10 03:05:23;;;;;;;30.52;28.00;;;21.00;99.90;;;;;;5046340;28;20025;-79
2023/09/10 03:07:53;;;;;;;35.17;32.10;;;20.90;99.90;;;;;;5044286;28;20118;-79
2023/09/10 03:10:19;;;;;;;34.28;31.48;;;20.90;99.90;;;;;;5044899;28;20039;-78
2023/09/10 03:12:44;;;;;;;33.33;30.45;;;20.80;99.90;;;;;;5046809;28;20089;-78
2023/09/10 03:15:10;;;;;;;34.47;31.38;;;20.90;99.90;;;;;;5056461;28;20033;-78
2023/09/10 03:17:36;;;;;;;32.92;29.95;;;20.90;99.90;;;;;;5047498;28;20449;-79
2023/09/10 03:20:04;;;;;;;31.10;28.60;;;20.90;99.90;;;;;;5049116;28;20047;-79
2023/09/10 03:22:29;;;;;;;31.10;28.05;;;20.90;99.90;;;;;;5050878;28;20037;-79
2023/09/10 03:24:56;;;;;;;32.63;29.67;;;20.90;99.90;;;;;;5062053;28;20040;-78
2023/09/10 03:27:22;;;;;;;30.95;28.20;;;20.90;99.90;;;;;;5059236;28;20032;-79
2023/09/10 03:29:48;;;;;;;30.80;28.35;;;20.80;99.90;;;;;;5048936;28;20033;-79
2023/09/10 03:32:13;;;;;;;29.67;27.05;;;20.90;99.90;;;;;;5049028;28;20100;-79
2023/09/10 03:34:41;;;;;;;29.17;26.70;;;20.90;99.90;;;;;;5048462;28;20032;-79
2023/09/10 03:37:07;;;;;;;29.25;26.80;;;20.90;99.90;;;;;;5050642;28;20025;-79
2023/09/10 03:39:33;;;;;;;29.85;27.33;;;20.90;99.90;;;;;;5051545;28;20036;-79
2023/09/10 03:41:59;;;;;;;29.95;27.48;;;20.90;99.90;;;;;;5052364;28;20049;-79
2023/09/10 03:44:24;;;;;;;28.63;26.38;;;20.90;99.90;;;;;;5068304;28;20385;-79
2023/09/10 03:46:51;;;;;;;31.00;28.38;;;20.90;99.90;;;;;;5053778;28;20029;-78
2023/09/10 03:49:17;;;;;;;31.40;28.65;;;20.90;99.90;;;;;;5062393;28;20025;-79
2023/09/10 03:51:42;;;;;;;28.20;25.92;;;20.90;99.90;;;;;;5067791;28;20024;-79
2023/09/10 03:54:11;;;;;;;33.47;30.60;;;20.80;99.90;;;;;;5063996;28;20033;-79
2023/09/10 03:56:37;;;;;;;28.80;26.30;;;20.80;99.90;;;;;;5052167;28;20057;-79
2023/09/10 03:59:03;;;;;;;30.25;27.55;;;20.80;99.90;;;;;;5056037;28;20067;-79
2023/09/10 04:01:29;;;;;;;33.42;30.52;;;20.80;99.90;;;;;;5057910;28;20460;-79
2023/09/10 04:03:55;;;;;;;32.80;29.90;;;20.80;99.90;;;;;;5066836;28;20028;-79
2023/09/10 04:06:20;;;;;;;30.00;27.45;;;20.80;99.90;;;;;;5071726;28;20115;-78
2023/09/10 04:08:46;;;;;;;32.05;29.17;;;20.80;99.90;;;;;;5060452;28;20099;-79
2023/09/10 04:11:11;;;;;;;38.75;35.08;;;20.70;99.90;;;;;;5069852;28;20082;-78
2023/09/10 04:13:37;;;;;;;31.23;28.38;;;20.80;99.90;;;;;;5063236;28;20478;-79
2023/09/10 04:16:03;;;;;;;30.80;28.13;;;20.70;99.90;;;;;;5053041;28;20028;-80
2023/09/10 04:18:28;;;;;;;34.60;31.83;;;20.70;99.90;;;;;;5063444;28;20139;-79
2023/09/10 04:20:54;;;;;;;35.42;32.42;;;20.60;99.90;;;;;;5059737;28;20169;-79
2023/09/10 04:23:19;;;;;;;34.58;31.60;;;20.70;99.90;;;;;;5058263;28;20024;-79
2023/09/10 04:25:45;;;;;;;35.90;32.97;;;20.70;99.90;;;;;;5057129;28;20136;-79
2023/09/10 04:28:10;;;;;;;37.92;34.63;;;20.70;99.90;;;;;;5054107;28;20040;-79
2023/09/10 04:30:36;;;;;;;34.92;31.95;;;20.70;99.90;;;;;;5053619;28;20036;-79
2023/09/10 04:33:02;;;;;;;34.33;31.48;;;20.70;99.90;;;;;;5052079;28;20469;-79
2023/09/10 04:35:27;;;;;;;36.40;32.75;;;20.70;99.90;;;;;;5053259;28;20060;-78
2023/09/10 04:37:53;;;;;;;35.25;32.28;;;20.70;99.90;;;;;;5053770;28;20037;-79
2023/09/10 04:40:19;;;;;;;34.08;30.92;;;20.70;99.90;;;;;;5055540;28;20430;-79
2023/09/10 04:42:44;;;;;;;38.55;35.25;;;20.70;99.90;;;;;;5053663;28;20096;-79
2023/09/10 04:45:10;;;;;;;33.28;30.33;;;20.70;99.90;;;;;;5055190;28;20037;-78
2023/09/10 04:47:35;;;;;;;33.70;30.80;;;20.70;99.90;;;;;;5052504;28;20036;-78
2023/09/10 04:50:01;;;;;;;36.13;33.00;;;20.70;99.90;;;;;;5069000;28;20501;-78
2023/09/10 04:52:27;;;;;;;37.65;34.35;;;20.70;99.90;;;;;;5053295;28;20029;-79
2023/09/10 04:54:52;;;;;;;38.38;34.88;;;20.60;99.90;;;;;;5054735;28;20050;-78
2023/09/10 04:57:18;;;;;;;35.13;31.83;;;20.70;99.90;;;;;;5053200;28;20037;-78
2023/09/10 04:59:43;;;;;;;38.45;35.05;;;20.70;99.90;;;;;;5054879;28;20025;-79
2023/09/10 05:02:09;;;;;;;35.03;32.10;;;20.60;99.90;;;;;;5053202;28;20120;-78
2023/09/10 05:04:34;;;;;;;32.88;29.70;;;20.60;99.90;;;;;;5052561;28;20036;-78
2023/09/10 05:07:00;;;;;;;33.92;30.95;;;20.60;99.90;;;;;;5049079;28;20045;-79
2023/09/10 05:09:25;;;;;;;32.50;29.85;;;20.70;99.90;;;;;;5062777;28;20035;-79
2023/09/10 05:11:56;;;;;;;36.45;33.17;;;20.50;99.90;;;;;;5067648;28;20028;-79
2023/09/10 05:14:22;;;;;;;32.92;30.10;;;20.70;99.90;;;;;;5064044;28;20532;-79
2023/09/10 05:16:47;;;;;;;34.80;31.73;;;20.60;99.90;;;;;;5053460;28;20067;-79
2023/09/10 05:19:13;;;;;;;35.85;32.83;;;20.60;99.90;;;;;;5051369;28;20474;-79
2023/09/10 05:21:38;;;;;;;33.92;31.10;;;20.60;99.90;;;;;;5050969;28;20025;-79
2023/09/10 05:24:04;;;;;;;35.03;31.75;;;20.60;99.90;;;;;;5051171;28;20021;-78
2023/09/10 05:26:30;;;;;;;35.78;32.45;;;20.70;99.90;;;;;;5050937;28;20024;-79
2023/09/10 05:28:55;;;;;;;34.10;31.15;;;20.70;99.90;;;;;;5051329;28;20036;-79
2023/09/10 05:31:21;;;;;;;36.88;33.85;;;20.70;99.90;;;;;;5051417;28;20116;-79
2023/09/10 05:33:46;;;;;;;36.28;33.08;;;20.70;99.90;;;;;;5050148;28;20021;-79
2023/09/10 05:36:12;;;;;;;34.92;31.92;;;20.70;99.90;;;;;;5051407;28;20017;-79
2023/09/10 05:38:37;;;;;;;34.58;31.70;;;20.70;99.90;;;;;;5050217;28;20021;-79
2023/09/10 05:41:04;;;;;;;33.35;30.38;;;20.70;99.90;;;;;;5051071;28;20037;-78
2023/09/10 05:43:30;;;;;;;32.58;29.75;;;20.70;99.90;;;;;;5050831;28;20082;-79
2023/09/10 05:45:57;;;;;;;35.50;32.22;;;20.70;99.90;;;;;;5050183;28;20078;-79
2023/09/10 05:48:22;;;;;;;32.40;29.70;;;20.70;99.90;;;;;;5051029;28;20029;-79
2023/09/10 05:50:48;;;;;;;33.50;30.52;;;20.70;99.90;;;;;;5051091;28;20032;-78
2023/09/10 05:53:14;;;;;;;37.58;34.08;;;20.80;99.90;;;;;;5050629;28;20454;-78
2023/09/10 05:55:41;;;;;;;34.80;31.95;;;20.80;99.90;;;;;;5049707;28;20033;-78
2023/09/10 05:58:07;;;;;;;35.38;32.42;;;20.80;99.90;;;;;;5050188;28;20017;-78
2023/09/10 06:00:33;;;;;;;33.35;30.42;;;20.90;99.90;;;;;;5068217;28;20020;-78
2023/09/10 06:02:59;;;;;;;38.67;35.17;;;20.90;99.90;;;;;;5059839;28;20492;-78
2023/09/10 06:05:24;;;;;;;38.42;35.13;;;21.00;99.90;;;;;;5062837;28;20442;-78
2023/09/10 06:07:50;;;;;;;37.38;33.97;;;21.00;99.90;;;;;;5068623;28;20234;-78
2023/09/10 06:10:15;;;;;;;35.90;32.85;;;21.00;99.90;;;;;;5055142;28;20021;-78
2023/09/10 06:12:41;;;;;;;35.08;32.15;;;21.00;99.90;;;;;;5069599;28;20035;-79
2023/09/10 06:15:07;;;;;;;38.30;35.17;;;21.10;99.90;;;;;;5049264;28;20094;-78
2023/09/10 06:17:33;;;;;;;38.47;35.17;;;21.10;99.90;;;;;;5061952;28;20493;-78
2023/09/10 06:19:59;;;;;;;39.00;35.60;;;21.20;99.90;;;;;;5055764;28;20423;-79
2023/09/10 06:22:24;;;;;;;42.35;38.75;;;21.20;99.90;;;;;;5048999;28;20021;-79
2023/09/10 06:24:50;;;;;;;41.25;37.55;;;21.20;99.90;;;;;;5055000;28;20027;-79
2023/09/10 06:27:16;;;;;;;42.80;39.15;;;21.30;99.90;;;;;;5069651;28;20029;-78
2023/09/10 06:29:42;;;;;;;42.65;39.05;;;21.30;99.90;;;;;;5066970;28;20031;-78
2023/09/10 06:32:07;;;;;;;41.05;37.45;;;21.30;99.90;;;;;;5069519;28;20016;-79
2023/09/10 06:34:33;;;;;;;41.30;37.80;;;21.40;99.90;;;;;;5050211;28;20055;-79
2023/09/10 06:36:59;;;;;;;43.38;39.70;;;21.40;99.90;;;;;;5048280;28;20048;-79
2023/09/10 06:39:25;;;;;;;38.67;35.50;;;21.50;99.90;;;;;;5049605;28;20021;-78
2023/09/10 06:41:53;;;;;;;44.33;40.42;;;21.60;99.90;;;;;;5049653;28;20036;-79
2023/09/10 06:44:19;;;;;;;41.75;38.25;;;21.60;99.90;;;;;;5048316;28;20033;-78
2023/09/10 06:46:44;;;;;;;40.33;36.67;;;21.70;99.90;;;;;;5050066;28;20035;-78
2023/09/10 06:49:10;;;;;;;43.35;39.55;;;21.70;99.90;;;;;;5049411;28;20029;-78
2023/09/10 06:51:35;;;;;;;42.33;38.70;;;21.70;99.90;;;;;;5049921;28;20516;-79
2023/09/10 06:54:01;;;;;;;42.78;39.10;;;21.80;99.90;;;;;;5050140;28;20478;-78
2023/09/10 06:56:28;;;;;;;41.72;38.20;;;21.90;99.90;;;;;;5050279;28;20040;-79
2023/09/10 06:58:54;;;;;;;41.30;37.80;;;21.90;99.90;;;;;;5050050;28;20017;-77
2023/09/10 07:01:21;;;;;;;43.50;39.75;;;22.00;99.90;;;;;;5050075;28;20028;-78
2023/09/10 07:03:51;;;;;;;42.47;38.80;;;22.00;99.90;;;;;;5049101;28;20027;-78
2023/09/10 07:06:16;;;;;;;40.05;36.40;;;22.10;99.90;;;;;;5049416;28;20108;-78
2023/09/10 07:08:42;;;;;;;42.80;39.20;;;22.20;99.90;;;;;;5048704;28;20113;-77
2023/09/10 07:11:08;;;;;;;43.17;39.53;;;22.20;99.90;;;;;;5060698;28;20044;-76
2023/09/10 07:13:36;;;;;;;44.17;40.35;;;22.30;99.90;;;;;;5062005;28;20033;-76
2023/09/10 07:16:02;;;;;;;42.38;38.72;;;22.30;99.90;;;;;;5069704;28;20025;-76
2023/09/10 07:18:32;;;;;;;41.60;37.70;;;22.40;99.90;;;;;;5066926;28;20032;-76
2023/09/10 07:20:59;;;;;;;38.72;35.42;;;22.50;99.90;;;;;;5072659;28;20013;-76
2023/09/10 07:23:25;;;;;;;43.92;40.03;;;22.50;99.90;;;;;;5072811;28;20481;-76
2023/09/10 07:25:50;;;;;;;39.97;36.47;;;22.60;99.90;;;;;;5065498;28;20037;-73
2023/09/10 07:28:16;;;;;;;43.28;39.60;;;22.70;99.90;;;;;;5068699;28;20033;-74
2023/09/10 07:30:42;;;;;;;41.47;37.75;;;22.80;99.90;;;;;;5072277;28;20050;-73
2023/09/10 07:33:08;;;;;;;45.53;41.40;;;22.80;99.90;;;;;;5061890;28;20439;-73
2023/09/10 07:35:33;;;;;;;44.70;40.58;;;22.90;99.90;;;;;;5066188;28;20028;-73
2023/09/10 07:37:59;;;;;;;38.13;34.97;;;22.90;99.90;;;;;;5070941;28;20012;-73
2023/09/10 07:40:24;;;;;;;43.22;39.47;;;23.00;99.90;;;;;;5065473;28;20025;-74
2023/09/10 07:42:50;;;;;;;47.22;43.10;;;23.10;99.90;;;;;;5071973;28;20107;-74
2023/09/10 07:45:16;;;;;;;45.88;41.60;;;23.20;99.90;;;;;;5071315;28;20074;-73
2023/09/10 07:47:41;;;;;;;44.63;40.63;;;23.20;99.90;;;;;;5072307;28;20021;-73
2023/09/10 07:50:07;;;;;;;46.78;42.75;;;23.30;99.90;;;;;;5071045;28;20473;-74
2023/09/10 07:52:33;;;;;;;44.28;40.25;;;23.30;99.90;;;;;;5053042;28;20024;-74
2023/09/10 07:54:58;;;;;;;49.08;44.70;;;23.50;99.90;;;;;;5052460;28;20051;-73
2023/09/10 07:57:24;;;;;;;46.15;42.15;;;23.50;99.90;;;;;;5051979;28;20095;-74
2023/09/10 07:59:51;;;;;;;44.92;40.85;;;23.50;99.90;;;;;;5056723;28;20040;-73
2023/09/10 08:02:16;;;;;;;43.42;39.72;;;23.60;99.90;;;;;;5059090;28;20079;-73
2023/09/10 08:04:43;;;;;;;44.80;40.88;;;23.70;99.90;;;;;;5052006;28;20024;-74
2023/09/10 08:07:10;;;;;;;49.35;45.08;;;23.70;99.90;;;;;;5059020;28;20025;-73
2023/09/10 08:09:39;;;;;;;46.80;42.88;;;23.80;99.90;;;;;;5052481;28;20025;-73
2023/09/10 08:12:05;;;;;;;44.47;40.83;;;23.90;99.90;;;;;;5058773;28;20219;-74
2023/09/10 08:14:31;;;;;;;51.90;47.25;;;23.90;99.90;;;;;;5064830;28;20032;-74
2023/09/10 08:16:56;;;;;;;45.80;41.70;;;23.90;99.90;;;;;;5052108;28;20028;-74
2023/09/10 08:19:22;;;;;;;47.10;42.88;;;24.00;99.90;;;;;;5051967;28;20052;-73
2023/09/10 08:21:48;;;;;;;43.05;39.35;;;24.10;99.90;;;;;;5055949;28;20078;-74
2023/09/10 08:24:13;;;;;;;47.45;43.25;;;24.20;99.90;;;;;;5062112;28;20047;-75
2023/09/10 08:26:39;;;;;;;43.08;39.08;;;24.20;99.90;;;;;;5057419;28;20063;-74
2023/09/10 08:29:04;;;;;;;48.85;44.58;;;24.30;99.90;;;;;;5063333;28;20457;-74
2023/09/10 08:31:31;;;;;;;45.22;41.33;;;24.40;99.90;;;;;;5056797;28;20039;-74
2023/09/10 08:33:56;;;;;;;41.40;37.75;;;24.40;99.90;;;;;;5067033;28;20020;-74
2023/09/10 08:36:22;;;;;;;53.65;48.72;;;24.50;99.90;;;;;;5057481;28;20116;-74
2023/09/10 08:38:48;;;;;;;45.72;41.60;;;24.50;99.90;;;;;;5062152;28;20074;-75
2023/09/10 08:41:57;;;;;;;47.50;43.28;;;24.60;99.90;;;;;;5053460;28;20017;-76
2023/09/10 08:44:24;;;;;;;42.45;38.50;;;24.70;99.90;;;;;;5027996;28;20083;-76
2023/09/10 08:46:53;;;;;;;38.38;34.95;;;24.70;99.90;;;;;;5033115;28;20036;-76
2023/09/10 08:49:20;;;;;;;41.25;37.40;;;24.80;99.90;;;;;;5031127;28;20109;-76
2023/09/10 08:51:46;;;;;;;41.70;38.17;;;24.80;99.90;;;;;;5033501;28;20021;-76
2023/09/10 08:54:13;;;;;;;44.67;40.67;;;24.90;99.90;;;;;;5030756;28;20033;-75
2023/09/10 08:56:39;;;;;;;47.45;43.20;;;25.00;99.90;;;;;;5032982;28;20036;-76
2023/09/10 08:59:07;;;;;;;43.10;39.13;;;25.00;99.90;;;;;;5030990;28;20025;-76
2023/09/10 09:01:33;;;;;;;43.53;39.50;;;25.10;99.90;;;;;;5032495;28;20025;-76
2023/09/10 09:04:00;;;;;;;41.20;37.40;;;25.20;99.90;;;;;;5030936;28;20047;-76
2023/09/10 09:06:29;;;;;;;38.92;35.45;;;25.20;99.90;;;;;;5032947;28;20080;-76
2023/09/10 09:08:57;;;;;;;40.72;36.92;;;25.30;99.90;;;;;;5029959;28;20041;-76
2023/09/10 09:11:23;;;;;;;39.42;35.92;;;25.40;99.90;;;;;;5030152;28;20534;-76
2023/09/10 09:13:52;;;;;;;36.53;33.00;;;25.40;99.90;;;;;;5030414;28;20030;-77
2023/09/10 09:16:18;;;;;;;37.72;34.50;;;25.50;99.90;;;;;;5031901;28;20087;-76
2023/09/10 09:18:46;;;;;;;36.72;33.38;;;25.60;99.90;;;;;;5055818;28;20029;-76
2023/09/10 09:21:17;;;;;;;39.25;35.65;;;25.70;99.90;;;;;;5050653;28;20032;-75
2023/09/10 09:23:57;;;;;;;34.20;30.95;;;25.70;99.80;;;;;;5059903;28;20063;-76
2023/09/10 09:26:24;;;;;;;32.22;29.23;;;25.80;99.80;;;;;;5070637;28;20016;-76
2023/09/10 09:28:49;;;;;;;32.20;29.42;;;25.90;99.60;;;;;;5058898;28;20021;-76
2023/09/10 09:31:20;;;;;;;27.40;24.83;;;26.00;99.20;;;;;;5056063;28;20530;-77
2023/09/10 09:33:45;;;;;;;30.20;27.52;;;26.10;99.00;;;;;;5070364;28;20542;-77
2023/09/10 09:36:11;;;;;;;28.83;26.23;;;26.20;98.90;;;;;;5069854;28;20029;-77
2023/09/10 09:38:48;;;;;;;31.77;28.60;;;26.20;98.70;;;;;;5060441;28;20064;-77
2023/09/10 09:41:15;;;;;;;29.65;26.85;;;26.30;98.30;;;;;;5040089;28;20028;-76
2023/09/10 09:43:41;;;;;;;28.08;25.23;;;26.40;98.60;;;;;;5044636;28;20033;-77
2023/09/10 09:46:07;;;;;;;26.88;24.40;;;26.50;98.40;;;;;;5047845;28;20024;-75
2023/09/10 09:48:34;;;;;;;31.85;28.77;;;26.50;98.20;;;;;;5047427;28;20025;-76
2023/09/10 09:51:01;;;;;;;30.15;27.13;;;26.60;97.80;;;;;;5047003;28;20029;-76
2023/09/10 09:53:30;;;;;;;31.30;27.95;;;26.70;97.60;;;;;;5046925;28;20113;-77
2023/09/10 09:55:57;;;;;;;25.77;23.38;;;26.70;97.50;;;;;;5046831;28;20060;-76
2023/09/10 09:58:22;;;;;;;24.35;22.20;;;26.80;97.40;;;;;;5047317;28;20036;-77
2023/09/10 10:00:48;;;;;;;27.00;22.95;;;26.90;97.50;;;;;;5047348;28;20324;-76
2023/09/10 10:03:16;;;;;;;23.02;20.83;;;27.00;97.30;;;;;;5047171;28;20033;-77
2023/09/10 10:05:42;;;;;;;24.25;21.60;;;27.10;97.20;;;;;;5045056;28;20461;-78
2023/09/10 10:08:07;;;;;;;19.50;17.55;;;27.10;96.90;;;;;;5046287;28;20064;-77
2023/09/10 10:10:34;;;;;;;23.02;20.83;;;27.20;96.80;;;;;;5045377;28;20126;-77
2023/09/10 10:13:01;;;;;;;21.80;19.77;;;27.20;96.80;;;;;;5046842;28;20047;-76
2023/09/10 10:15:27;;;;;;;20.35;17.50;;;27.30;96.50;;;;;;5046537;28;20083;-76
2023/09/10 10:17:54;;;;;;;19.38;17.35;;;27.40;96.40;;;;;;5046654;28;20108;-76
2023/09/10 10:20:21;;;;;;;19.13;17.20;;;27.50;96.30;;;;;;5047015;28;20021;-76
2023/09/10 10:22:47;;;;;;;21.45;18.35;;;27.50;96.10;;;;;;5046056;28;20517;-76
2023/09/10 10:25:13;;;;;;;18.33;16.42;;;27.60;96.00;;;;;;5046961;28;20036;-78
2023/09/10 10:27:42;;;;;;;19.48;16.20;;;27.60;95.70;;;;;;5045380;28;20028;-76
2023/09/10 10:30:08;;;;;;;17.73;15.20;;;27.70;95.60;;;;;;5046205;28;20116;-77
2023/09/10 10:32:34;;;;;;;15.35;13.75;;;27.70;95.40;;;;;;5045364;28;20017;-77
2023/09/10 10:35:05;;;;;;;15.20;13.68;;;27.80;95.40;;;;;;5062312;28;20033;-77
2023/09/10 10:37:46;;;;;;;15.35;13.73;;;27.80;95.30;;;;;;5046337;28;20017;-77
2023/09/10 10:40:18;;;;;;;17.73;14.98;;;27.90;95.00;;;;;;5044921;28;20029;-78
2023/09/10 10:43:12;;;;;;;13.85;12.48;;;27.90;94.70;;;;;;5046776;28;20017;-78
2023/09/10 10:45:38;;;;;;;14.88;13.40;;;27.90;94.70;;;;;;5061139;28;20084;-76
2023/09/10 10:48:11;;;;;;;14.43;12.70;;;27.90;94.60;;;;;;5046662;28;20029;-76
2023/09/10 10:50:39;;;;;;;14.02;12.50;;;28.00;94.50;;;;;;5043791;28;20059;-76
2023/09/10 10:53:09;;;;;;;16.77;11.90;;;28.00;94.40;;;;;;5044809;28;20051;-75
2023/09/10 10:55:37;;;;;;;11.82;10.65;;;28.00;94.10;;;;;;5046008;28;20482;-75
2023/09/10 10:58:03;;;;;;;12.05;10.75;;;28.00;94.30;;;;;;5044368;28;20143;-75
2023/09/10 11:00:29;;;;;;;14.10;11.05;;;28.00;94.40;;;;;;5046382;28;20114;-75
2023/09/10 11:03:15;;;;;;;15.80;10.80;;;28.10;94.10;;;;;;5045856;28;20032;-74
2023/09/10 11:06:06;;;;;;;12.07;10.30;;;28.10;93.80;;;;;;5039794;28;20516;-75
2023/09/10 11:08:42;;;;;;;11.85;10.65;;;28.10;93.60;;;;;;5044329;28;20496;-74
2023/09/10 11:11:09;;;;;;;11.90;10.75;;;28.10;93.90;;;;;;5044609;28;20025;-74
2023/09/10 11:14:01;;;;;;;17.40;10.35;;;28.10;93.80;;;;;;5061249;28;20032;-75
2023/09/10 11:16:31;;;;;;;14.63;11.53;;;28.20;94.10;;;;;;5046244;28;20021;-74
2023/09/10 11:18:58;;;;;;;12.10;10.40;;;28.20;93.90;;;;;;5045334;28;20099;-75
2023/09/10 11:21:55;;;;;;;14.05;11.95;;;28.10;94.10;;;;;;5045564;28;20087;-75
2023/09/10 11:24:21;;;;;;;12.27;10.00;;;28.10;93.90;;;;;;5045809;28;20044;-74
2023/09/10 11:26:47;;;;;;;14.02;10.40;;;28.10;94.00;;;;;;5045940;28;20437;-74
2023/09/10 11:29:21;;;;;;;12.88;10.45;;;28.10;93.80;;;;;;5045922;28;20033;-74
2023/09/10 11:31:48;;;;;;;11.60;9.80;;;28.10;93.60;;;;;;5046025;28;20040;-74
2023/09/10 11:34:16;;;;;;;11.02;9.90;;;28.10;93.70;;;;;;5044787;28;20397;-73
2023/09/10 11:36:50;;;;;;;10.50;9.27;;;28.10;93.90;;;;;;5045603;28;20141;-74
2023/09/10 11:39:17;;;;;;;14.30;9.57;;;28.20;93.60;;;;;;5044014;28;20131;-75
2023/09/10 11:41:50;;;;;;;14.55;9.85;;;28.30;93.30;;;;;;5045615;28;20486;-74
2023/09/10 11:44:16;;;;;;;18.77;10.95;;;28.20;93.10;;;;;;5043950;28;20212;-74
2023/09/10 11:46:42;;;;;;;11.85;9.90;;;28.30;93.30;;;;;;5045482;28;20117;-74
2023/09/10 11:49:08;;;;;;;12.85;10.45;;;28.30;93.40;;;;;;5045131;28;20029;-74
2023/09/10 11:51:50;;;;;;;13.75;9.75;;;28.30;93.50;;;;;;5045433;28;20028;-75
2023/09/10 11:54:17;;;;;;;14.98;10.85;;;28.40;93.50;;;;;;5038869;28;20028;-75
2023/09/10 11:56:45;;;;;;;10.57;9.38;;;28.40;93.40;;;;;;5058232;28;20501;-75
2023/09/10 11:59:12;;;;;;;10.25;9.05;;;28.40;93.50;;;;;;5044214;28;20032;-75
2023/09/10 12:01:39;;;;;;;15.50;9.85;;;28.50;93.20;;;;;;5048988;28;20045;-74
2023/09/10 12:04:04;;;;;;;12.50;10.02;;;28.50;93.10;;;;;;5064422;28;20048;-75
2023/09/10 12:06:30;;;;;;;11.45;9.88;;;28.60;92.90;;;;;;5049212;28;20025;-75
2023/09/10 12:08:55;;;;;;;11.88;8.82;;;28.50;92.90;;;;;;5049285;28;20021;-74
2023/09/10 12:11:22;;;;;;;10.82;8.50;;;28.60;92.90;;;;;;5046040;28;20120;-76
2023/09/10 12:13:48;;;;;;;10.93;8.82;;;28.60;93.10;;;;;;5047805;28;20390;-75
2023/09/10 12:16:13;;;;;;;13.10;8.65;;;28.60;93.10;;;;;;5049181;28;20037;-75
2023/09/10 12:18:40;;;;;;;14.10;9.32;;;28.60;93.10;;;;;;5047133;28;20029;-75
2023/09/10 12:21:06;;;;;;;9.90;7.88;;;28.60;92.70;;;;;;5047095;28;20081;-76
2023/09/10 12:23:32;;;;;;;13.23;8.90;;;28.60;92.80;;;;;;5072331;28;20143;-76
2023/09/10 12:26:01;;;;;;;8.88;7.72;;;28.60;92.70;;;;;;5059201;28;20021;-76
2023/09/10 12:28:26;;;;;;;9.52;7.70;;;28.70;92.60;;;;;;5050792;28;20021;-76